首页
METAR-TAF:

METAR-TAF

机场 :

格蘭德營, 南马托格罗索州, 巴西

纬度: 20-28S, 经度: 054-40W, 海拔: 567米

当前天气观测

该预报发布于49分钟前的05:00 UTC
风速10节,风向东南
温度 10°C
湿度 93%
气压 1023 hPa
能见度10公里或以上
多云层高于700英尺

METAR: SBCG 150500Z 14010KT 9999 BKN007 10/09 Q1023

时间: 01:49 (05:49 UTC)

预报

该预报发布于3小时和54分钟前的01:55 UTC
预报有效从15日的 06点(UTC)到 16日的 06点(UTC)
风速10节,风向南转南东
能见度10公里或以上
多云层高于700英尺
几率 30%
从 15日的 09点(UTC)到 15日的 12点(UTC)
能見度: 4000
多云层高于300英尺
轻雾
成为
从 15日的 13点(UTC)到 15日的 15点(UTC)
能见度10公里或以上
1500米以下无云,无积雨云

TAF: SBCG 150155Z 1506/1606 16010KT 9999 BKN007 TN11/1510Z TX24/1519Z PROB30 1509/1512 4000 BR BKN003 BECMG 1513/1515 CAVOK RMK PGG

超过4000个机场的气象观测和天气预报(METAR&TAF报告)。

可查询的气象台以黄色和红色小点在地图上表示。

将鼠标移到小点上方,可查看气象台名称。

然后点击查看天气观测和预报。

如需切换地图:点击带黑十字的绿色按钮放大地图;点击带横线的绿色按钮缩小地图;或者点击绿色箭头查看邻近地区的地图。


METAR-TAF: